Straumbas — LIOD — position and weather

sailwx.info

Track history (hours):
 
Tides and Currents Weather Stations Pressure Air Temp Water Temp Dewpoint Dewpoint Depression Visibility Wind Speed Wind Dir Waves Ship Positions

Straumbas

Last reported at 2015-Jan-24 16:15 UTC. Time now 2015-Jan-26 12:27 UTC.
Position N 63°36' E 009°26'.

Length 38 m; draft 5.5 m.

Type: Fishing. MMSI: 258035000.

Date/timePositionNaut miles runAvg speedWind from/ knotsBaromVisibWave heightAir tempDewpointWater temp
2015-Jan-24 16:15N 63°36' E 009°26'7 8.6
2015-Jan-24 15:29N 63°42' E 009°30'97 8.1
2015-Jan-24 03:33N 65°01' E 011°41'9 8.5
2015-Jan-24 02:32N 65°09' E 011°50'75 8.4
2015-Jan-23 17:33N 66°19' E 012°56'9 9.1
2015-Jan-23 16:33N 66°28' E 012°59'8 7.6
2015-Jan-23 15:33N 66°35' E 013°04'36 8.3
2015-Jan-23 11:13N 67°05' E 013°56'6 8.7
2015-Jan-23 10:33N 67°10' E 014°03'9 8.9
2015-Jan-23 09:33N 67°18' E 014°16'8 8.3
2015-Jan-23 08:33N 67°25' E 014°27'8 7.9
2015-Jan-23 07:33N 67°33' E 014°23'12 7.9
2015-Jan-23 06:05N 67°44' E 014°16'147 3.1
2015-Jan-21 06:18N 69°34' E 018°46'6 7.6
2015-Jan-21 05:33N 69°38' E 018°57'0 0.0
2015-Jan-21 04:33N 69°38' E 018°57'0 0.0
2015-Jan-21 03:33N 69°38' E 018°57'0 0.0
2015-Jan-21 02:33N 69°38' E 018°57'0 0.0
2015-Jan-21 01:33N 69°38' E 018°57'0 0.0
2015-Jan-21 00:33N 69°38' E 018°57'0 0.0
2015-Jan-20 23:33N 69°38' E 018°57'0 0.0
2015-Jan-20 22:33N 69°38' E 018°57'0 0.0
2015-Jan-20 21:33N 69°38' E 018°57'0 0.0
2015-Jan-20 20:33N 69°38' E 018°57'0 0.0
2015-Jan-20 19:33N 69°38' E 018°57'0 0.0
2015-Jan-20 18:33N 69°38' E 018°57'0 0.0
2015-Jan-20 17:33N 69°38' E 018°57'0 0.0
2015-Jan-20 16:33N 69°38' E 018°57'2 1.6
2015-Jan-20 15:33N 69°36' E 018°54'229 5.6
2015-Jan-18 22:29N 66°30' E 012°58'9 9.0
2015-Jan-18 21:31N 66°22' E 012°58'77 8.4
2015-Jan-18 12:18N 65°09' E 011°50'8 8.8
2015-Jan-18 11:23N 65°02' E 011°43'7 8.6
2015-Jan-18 10:33N 64°57' E 011°30'9 8.8
2015-Jan-18 09:33N 64°52' E 011°14'9 8.3
2015-Jan-18 08:32N 64°45' E 011°01'  
Track history (hours):
 
Tides and Currents Weather Stations Pressure Air Temp Water Temp Dewpoint Dewpoint Depression Visibility Wind Speed Wind Dir Waves Ship Positions

Straumbas

Last reported at 2015-Jan-24 16:15 UTC. Time now 2015-Jan-26 12:27 UTC.
Position N 63°36' E 009°26'.

Length 38 m; draft 5.5 m.

Type: Fishing. MMSI: 258035000.

Date/timePositionNaut miles runAvg speedWind from/ knotsBaromVisibWave heightAir tempDewpointWater temp
2015-Jan-24 16:15N 63°36' E 009°26'7 8.6
2015-Jan-24 15:29N 63°42' E 009°30'97 8.1
2015-Jan-24 03:33N 65°01' E 011°41'9 8.5
2015-Jan-24 02:32N 65°09' E 011°50'75 8.4
2015-Jan-23 17:33N 66°19' E 012°56'9 9.1
2015-Jan-23 16:33N 66°28' E 012°59'8 7.6
2015-Jan-23 15:33N 66°35' E 013°04'36 8.3
2015-Jan-23 11:13N 67°05' E 013°56'6 8.7
2015-Jan-23 10:33N 67°10' E 014°03'9 8.9
2015-Jan-23 09:33N 67°18' E 014°16'8 8.3
2015-Jan-23 08:33N 67°25' E 014°27'8 7.9
2015-Jan-23 07:33N 67°33' E 014°23'12 7.9
2015-Jan-23 06:05N 67°44' E 014°16'147 3.1
2015-Jan-21 06:18N 69°34' E 018°46'6 7.6
2015-Jan-21 05:33N 69°38' E 018°57'0 0.0
2015-Jan-21 04:33N 69°38' E 018°57'0 0.0
2015-Jan-21 03:33N 69°38' E 018°57'0 0.0
2015-Jan-21 02:33N 69°38' E 018°57'0 0.0
2015-Jan-21 01:33N 69°38' E 018°57'0 0.0
2015-Jan-21 00:33N 69°38' E 018°57'0 0.0
2015-Jan-20 23:33N 69°38' E 018°57'0 0.0
2015-Jan-20 22:33N 69°38' E 018°57'0 0.0
2015-Jan-20 21:33N 69°38' E 018°57'0 0.0
2015-Jan-20 20:33N 69°38' E 018°57'0 0.0
2015-Jan-20 19:33N 69°38' E 018°57'0 0.0
2015-Jan-20 18:33N 69°38' E 018°57'0 0.0
2015-Jan-20 17:33N 69°38' E 018°57'0 0.0
2015-Jan-20 16:33N 69°38' E 018°57'2 1.6
2015-Jan-20 15:33N 69°36' E 018°54'229 5.6
2015-Jan-18 22:29N 66°30' E 012°58'9 9.0
2015-Jan-18 21:31N 66°22' E 012°58'77 8.4
2015-Jan-18 12:18N 65°09' E 011°50'8 8.8
2015-Jan-18 11:23N 65°02' E 011°43'7 8.6
2015-Jan-18 10:33N 64°57' E 011°30'9 8.8
2015-Jan-18 09:33N 64°52' E 011°14'9 8.3
2015-Jan-18 08:32N 64°45' E 011°01'  

Dump ship's entire track history